KOKC/OKC METAR and TAF weather

Enter ICAO airport designator
Station Type Date Time Source
KOKC METAR 2019/06/26 19:52 UTC NOAA

KOKC 261952Z 19011G18KT 10SM SCT042 31/21 A3009 RMK AO2 SLP174 T03110211


Station Type Date Time Source
KOKC Decoded METAR 2019/06/26 19:52 UTC NOAA

WILL ROGERS WORLD AIRPORT, OK, United States (KOKC) 35-23N 97-36W 390M
Jun 26, 2019 - 03:52 PM EDT / 2019.06.26 1952 UTC
Wind: from the S (190 degrees) at 13 MPH (11 KT) gusting to 21 MPH (18 KT):0
Visibility: 10 mile(s):0
Sky conditions: partly cloudy
Temperature: 88.0 F (31.1 C)
Dew Point: 70.0 F (21.1 C)
Relative Humidity: 55%
Pressure (altimeter): 30.09 in. Hg (1018 hPa)
ob: KOKC 261952Z 19011G18KT 10SM SCT042 31/21 A3009 RMK AO2 SLP174 T03110211
cycle: 20

Station Type Date Time Source
KOKC TAF 2019/06/26 18:40 UTC NOAA

TAF KOKC 261738Z 2618/2718 16010G15KT P6SM SCT040
FM270000 16009KT P6SM SCT250
FM271500 19015KT P6SM BKN250

Example: see airport list